Time;durP1;ratioP1;P1;durP2;ratioP2;P2;SDS_P1;SDS_P2;PMS_P1;PMS_P2;Temp;Humidity;BMP_temperature;BMP_pressure;BME280_temperature;BME280_humidity;BME280_pressure;Samples;Min_cycle;Max_cycle;Signal;HPM_P1;HPM_P2
2022/07/22 00:03:41;;;;;;;9.88;2.40;;;;;;;14.81;100.00;101863.13;9983103;29;20148;-84
2022/07/22 00:08:42;;;;;;;14.13;2.53;;;;;;;14.66;100.00;101845.19;9990710;29;20183;-85
2022/07/22 00:13:43;;;;;;;8.75;2.60;;;;;;;15.17;100.00;101941.19;9984913;29;20518;-85
2022/07/22 00:18:43;;;;;;;16.10;3.72;;;;;;;14.56;100.00;101897.72;9990567;29;20045;-84
2022/07/22 00:23:44;;;;;;;11.35;3.55;;;;;;;14.65;100.00;101898.94;9969469;29;20045;-84
2022/07/22 00:28:45;;;;;;;14.63;3.58;;;;;;;14.48;100.00;101887.06;9967334;29;20034;-84
2022/07/22 00:33:46;;;;;;;27.73;4.78;;;;;;;14.92;100.00;101926.75;9931632;29;20090;-84
2022/07/22 00:38:46;;;;;;;13.70;4.78;;;;;;;14.31;100.00;101868.53;9972829;29;20030;-84
2022/07/22 00:43:53;;;;;;;19.38;4.78;;;;;;;14.44;100.00;101889.47;9983933;29;20034;-85
2022/07/22 00:48:53;;;;;;;21.97;6.63;;;;;;;14.80;100.00;101928.81;9998749;29;20066;-85
2022/07/22 00:53:54;;;;;;;19.33;4.93;;;;;;;14.60;100.00;101898.06;9984853;29;20128;-85
2022/07/22 00:58:56;;;;;;;12.15;5.05;;;;;;;14.60;100.00;101917.47;9983295;29;20049;-84
2022/07/22 01:03:57;;;;;;;16.80;5.85;;;;;;;14.55;100.00;101909.84;9969505;29;20046;-84
2022/07/22 01:09:01;;;;;;;14.70;5.35;;;;;;;14.25;100.00;101877.88;9984060;29;20105;-85
2022/07/22 01:14:02;;;;;;;19.70;5.03;;;;;;;15.18;100.00;101990.03;9925667;29;20523;-85
2022/07/22 01:19:03;;;;;;;13.68;4.47;;;;;;;15.04;100.00;101961.84;9958195;29;20027;-85
2022/07/22 01:24:04;;;;;;;21.23;4.95;;;;;;;14.16;100.00;101826.78;9945366;29;20054;-84
2022/07/22 01:29:05;;;;;;;16.52;4.43;;;;;;;14.21;100.00;101815.75;9965534;29;20054;-86
2022/07/22 01:34:09;;;;;;;14.20;4.40;;;;;;;14.62;100.00;101906.97;9983388;29;20041;-84
2022/07/22 01:39:09;;;;;;;13.35;4.10;;;;;;;14.74;100.00;101924.31;9976582;29;20038;-84
2022/07/22 01:44:10;;;;;;;18.38;3.97;;;;;;;14.26;100.00;101813.09;9983748;29;20034;-84
2022/07/22 01:49:11;;;;;;;13.25;3.42;;;;;;;13.76;100.00;101747.56;9983440;29;20032;-83
2022/07/22 01:54:11;;;;;;;15.70;3.75;;;;;;;15.26;100.00;101986.81;9983283;29;20273;-84
2022/07/22 01:59:12;;;;;;;12.48;3.75;;;;;;;14.79;100.00;101926.31;9983647;29;20053;-84
2022/07/22 02:04:13;;;;;;;9.85;2.92;;;;;;;14.56;100.00;101885.81;9983325;29;20563;-84
2022/07/22 02:09:14;;;;;;;14.35;3.30;;;;;;;14.67;100.00;101896.75;9961754;29;20128;-84
2022/07/22 02:14:14;;;;;;;13.70;2.80;;;;;;;14.63;100.00;101901.13;9997553;29;20133;-84
2022/07/22 02:19:15;;;;;;;8.90;3.38;;;;;;;14.39;100.00;101858.13;9988983;29;20170;-84
2022/07/22 02:24:16;;;;;;;21.38;3.78;;;;;;;14.78;100.00;101921.84;9969443;29;20121;-84
2022/07/22 02:29:16;;;;;;;14.25;3.38;;;;;;;14.77;100.00;101909.09;9990806;29;20030;-84
2022/07/22 02:34:18;;;;;;;17.83;4.35;;;;;;;13.81;100.00;101755.09;9977236;29;20046;-84
2022/07/22 02:39:19;;;;;;;12.82;2.80;;;;;;;14.54;100.00;101902.66;9950892;29;20071;-84
2022/07/22 02:44:19;;;;;;;13.25;4.32;;;;;;;14.22;100.00;101872.84;9974931;29;20045;-84
2022/07/22 02:49:20;;;;;;;14.95;3.47;;;;;;;14.06;100.00;101844.06;9982965;29;20030;-84
2022/07/22 02:54:21;;;;;;;9.75;2.95;;;;;;;14.04;100.00;101801.97;9991526;29;20086;-84
2022/07/22 02:59:21;;;;;;;7.97;2.45;;;;;;;14.79;100.00;101929.91;9975981;29;20030;-84
2022/07/22 03:04:22;;;;;;;13.73;2.72;;;;;;;15.06;100.00;101974.34;9972581;29;20097;-84
2022/07/22 03:09:22;;;;;;;11.43;2.45;;;;;;;14.96;100.00;101954.78;9959411;29;20512;-83
2022/07/22 03:14:23;;;;;;;8.93;2.55;;;;;;;15.06;100.00;101974.34;9959624;29;20132;-84
2022/07/22 03:19:24;;;;;;;13.40;2.10;;;;;;;14.97;100.00;101973.13;9966501;29;20623;-84
2022/07/22 03:24:24;;;;;;;9.40;2.53;;;;;;;14.12;100.00;101831.16;9976591;29;20113;-84
2022/07/22 03:29:25;;;;;;;15.38;2.78;;;;;;;13.71;100.00;101759.41;9974886;29;20105;-84
2022/07/22 03:34:26;;;;;;;11.43;2.30;;;;;;;13.38;100.00;101707.72;9983482;29;20384;-83
2022/07/22 03:39:27;;;;;;;7.70;2.30;;;;;;;14.13;100.00;101847.50;9968086;29;20038;-84
2022/07/22 03:44:28;;;;;;;8.57;2.42;;;;;;;13.74;100.00;101788.50;9959912;29;20058;-84
2022/07/22 03:49:29;;;;;;;9.75;2.20;;;;;;;13.59;100.00;101760.59;9976521;29;20054;-85
2022/07/22 03:54:30;;;;;;;7.82;1.88;;;;;;;13.96;100.00;101843.09;9976999;29;20038;-84
2022/07/22 03:59:31;;;;;;;8.85;1.92;;;;;;;13.92;100.00;101823.38;9974797;29;20030;-84
2022/07/22 04:04:31;;;;;;;7.15;2.10;;;;;;;14.59;100.00;101919.38;9992661;29;20053;-84
2022/07/22 04:09:32;;;;;;;22.48;2.58;;;;;;;15.04;100.00;101976.53;9975847;29;20046;-84
2022/07/22 04:14:33;;;;;;;9.57;2.63;;;;;;;13.86;100.00;101794.78;9988274;29;20042;-84
2022/07/22 04:19:34;;;;;;;6.20;1.73;;;;;;;14.22;100.00;101859.00;9961300;29;20046;-84
2022/07/22 04:24:34;;;;;;;5.32;2.13;;;;;;;14.17;100.00;101844.22;9990288;29;20038;-84
2022/07/22 04:29:35;;;;;;;12.30;2.67;;;;;;;15.09;100.00;102022.94;9974960;29;20038;-84
2022/07/22 04:34:36;;;;;;;14.52;2.40;;;;;;;14.90;100.00;101953.91;9976803;29;20074;-84
2022/07/22 04:39:36;;;;;;;6.70;1.85;;;;;;;14.53;100.00;101884.34;9990478;29;20041;-84
2022/07/22 04:44:37;;;;;;;9.20;2.03;;;;;;;14.52;100.00;101888.22;9966395;29;20038;-84
2022/07/22 04:49:37;;;;;;;8.82;1.70;;;;;;;14.76;100.00;101910.16;10016108;29;20120;-84
2022/07/22 04:54:38;;;;;;;10.32;2.00;;;;;;;14.93;100.00;101945.06;9972771;29;20050;-83
2022/07/22 04:59:39;;;;;;;13.27;3.33;;;;;;;15.28;100.00;101995.72;9979332;29;20117;-84
2022/07/22 05:04:40;;;;;;;6.00;1.90;;;;;;;13.92;100.00;101752.22;9969397;29;20061;-84
2022/07/22 05:09:40;;;;;;;6.47;1.90;;;;;;;14.81;100.00;101899.16;9967507;29;20042;-84
2022/07/22 05:14:41;;;;;;;7.45;2.08;;;;;;;14.51;100.00;101864.34;9967807;29;20503;-84
2022/07/22 05:19:42;;;;;;;12.35;2.38;;;;;;;14.43;100.00;101803.88;9983627;29;20034;-85
2022/07/22 05:24:42;;;;;;;9.15;2.38;;;;;;;14.92;100.00;101893.50;9997182;29;20034;-83
2022/07/22 05:29:43;;;;;;;8.15;1.67;;;;;;;14.17;100.00;101775.81;9968370;29;20046;-83
2022/07/22 05:34:44;;;;;;;8.70;2.13;;;;;;;15.03;100.00;101893.63;9996624;29;20069;-84
2022/07/22 05:39:45;;;;;;;7.57;1.83;;;;;;;14.63;100.00;101818.00;9990332;29;20037;-84
2022/07/22 05:44:46;;;;;;;11.52;1.55;;;;;;;15.32;100.00;101953.31;9949776;29;20117;-84
2022/07/22 05:49:46;;;;;;;5.72;1.88;;;;;;;15.26;100.00;101917.44;9960382;29;20107;-84
2022/07/22 05:54:47;;;;;;;5.82;1.67;;;;;;;15.53;100.00;101932.16;9982462;29;20041;-84
2022/07/22 05:59:48;;;;;;;5.93;1.60;;;;;;;15.60;100.00;101961.66;9983811;29;20034;-84
2022/07/22 06:04:48;;;;;;;5.72;1.48;;;;;;;15.22;100.00;101858.88;9984063;29;20084;-84
2022/07/22 06:09:49;;;;;;;8.45;1.60;;;;;;;15.11;100.00;101857.06;9981569;29;20026;-85
2022/07/22 06:14:50;;;;;;;8.13;1.42;;;;;;;15.25;100.00;101908.25;10001475;29;20125;-84
2022/07/22 06:19:52;;;;;;;4.88;1.58;;;;;;;15.44;100.00;101932.88;9970949;29;20117;-84
2022/07/22 06:24:53;;;;;;;5.95;1.70;;;;;;;15.04;100.00;101845.34;9985087;29;20066;-84
2022/07/22 06:29:54;;;;;;;7.78;1.50;;;;;;;15.16;100.00;101893.19;9985434;29;20086;-85
2022/07/22 06:34:56;;;;;;;8.60;1.52;;;;;;;15.72;100.00;101967.91;9969376;29;20120;-84
2022/07/22 06:39:57;;;;;;;5.30;1.38;;;;;;;15.31;100.00;101889.75;9981378;29;20479;-84
2022/07/22 06:44:58;;;;;;;10.70;1.98;;;;;;;15.39;100.00;101894.81;9942543;29;20045;-85
2022/07/22 06:49:58;;;;;;;4.18;1.92;;;;;;;15.65;100.00;101906.19;9949258;29;20083;-86
2022/07/22 06:54:59;;;;;;;4.47;1.30;;;;;;;15.70;100.00;101893.19;9950284;29;20046;-86
2022/07/22 06:59:59;;;;;;;7.70;1.30;;;;;;;16.38;100.00;101953.75;9963023;29;20076;-87
2022/07/22 07:05:00;;;;;;;3.58;1.35;;;;;;;15.94;100.00;101876.22;9972447;29;20069;-88
2022/07/22 07:10:00;;;;;;;5.15;1.02;;;;;;;16.08;100.00;101865.44;9958033;29;20386;-88
2022/07/22 07:15:01;;;;;;;5.55;1.33;;;;;;;15.96;100.00;101809.25;9972847;29;20038;-87
2022/07/22 07:20:01;;;;;;;3.88;1.00;;;;;;;16.65;100.00;101903.59;9972247;29;20066;-87
2022/07/22 07:25:06;;;;;;;8.25;1.48;;;;;;;15.94;100.00;101776.22;9972236;29;20038;-87
2022/07/22 07:30:08;;;;;;;2.35;0.65;;;;;;;16.19;100.00;101833.03;9963149;29;20026;-89
2022/07/22 07:35:09;;;;;;;4.22;1.08;;;;;;;16.49;100.00;101868.47;9973660;29;20506;-89
2022/07/22 07:40:10;;;;;;;6.30;1.02;;;;;;;16.84;100.00;101880.91;9958814;29;20026;-88
2022/07/22 07:45:10;;;;;;;5.75;1.10;;;;;;;16.43;100.00;101816.75;9958504;29;20210;-87
2022/07/22 07:50:11;;;;;;;5.30;1.10;;;;;;;17.79;100.00;102000.31;9959195;29;20117;-87
2022/07/22 07:55:12;;;;;;;4.25;1.02;;;;;;;17.11;100.00;101867.63;9965934;29;20092;-88
2022/07/22 08:00:14;;;;;;;6.93;1.05;;;;;;;17.70;100.00;101929.56;9973029;29;20514;-88
2022/07/22 08:05:15;;;;;;;7.00;0.90;;;;;;;18.02;100.00;101939.63;9973569;29;20041;-86
2022/07/22 08:10:15;;;;;;;5.18;0.80;;;;;;;17.87;100.00;101834.59;9976368;29;20033;-87
2022/07/22 08:15:16;;;;;;;4.53;0.82;;;;;;;17.72;100.00;101804.78;9973187;29;20074;-88
2022/07/22 08:20:16;;;;;;;4.47;0.80;;;;;;;17.46;100.00;101785.31;9969785;29;20125;-90
2022/07/22 08:25:17;;;;;;;4.53;1.00;;;;;;;17.62;100.00;101821.50;9971790;29;20034;-88
2022/07/22 08:30:18;;;;;;;3.13;0.75;;;;;;;17.72;100.00;101843.78;9947836;29;20060;-87
2022/07/22 08:35:20;;;;;;;3.22;0.75;;;;;;;17.58;100.00;101874.13;9956544;29;20046;-87
2022/07/22 08:40:22;;;;;;;2.47;0.80;;;;;;;17.14;100.00;101817.00;9957018;29;20034;-87
2022/07/22 08:45:23;;;;;;;5.25;0.70;;;;;;;16.98;100.00;101784.72;9956803;29;20061;-87
2022/07/22 08:50:23;;;;;;;5.38;0.95;;;;;;;17.47;100.00;101856.59;9957806;29;20375;-87
2022/07/22 08:55:25;;;;;;;2.75;0.88;;;;;;;17.55;100.00;101872.75;9956580;29;20046;-87
2022/07/22 09:00:25;;;;;;;7.57;0.95;;;;;;;17.26;100.00;101847.38;9956269;29;20049;-87
2022/07/22 09:05:32;;;;;;;12.73;7.03;;;;;;;17.67;100.00;101818.72;9962466;29;20550;-86
2022/07/22 09:10:33;;;;;;;4.25;1.35;;;;;;;18.29;100.00;101859.34;9966169;29;20034;-88
2022/07/22 09:15:36;;;;;;;2.13;0.63;;;;;;;18.08;97.37;101836.25;9976600;29;20054;-88
2022/07/22 09:20:37;;;;;;;4.10;0.90;;;;;;;18.05;97.20;101824.84;9987886;29;20044;-88
2022/07/22 09:25:38;;;;;;;1.63;0.60;;;;;;;17.78;99.98;101808.38;9980110;29;20034;-88
2022/07/22 09:30:46;;;;;;;2.95;0.63;;;;;;;17.59;100.00;101794.22;9989397;29;20034;-88
2022/07/22 09:35:47;;;;;;;7.35;1.08;;;;;;;18.08;100.00;101874.41;9975121;29;20042;-89
2022/07/22 09:40:48;;;;;;;4.18;0.98;;;;;;;18.50;99.24;101971.66;9956899;29;20054;-88
2022/07/22 09:45:48;;;;;;;5.07;0.82;;;;;;;18.05;100.00;101933.50;9956254;29;20094;-89
2022/07/22 09:50:50;;;;;;;7.35;0.90;;;;;;;17.21;100.00;101864.06;9986937;29;20495;-88
2022/07/22 09:55:50;;;;;;;3.92;0.85;;;;;;;17.45;100.00;101877.47;9947908;29;20372;-89
2022/07/22 10:00:52;;;;;;;5.93;1.00;;;;;;;17.26;100.00;101891.03;9976910;29;20052;-89
2022/07/22 10:05:52;;;;;;;7.28;1.10;;;;;;;17.06;100.00;101895.47;9957256;29;20033;-88
2022/07/22 10:10:53;;;;;;;3.78;0.80;;;;;;;17.38;100.00;101901.94;9949391;29;20448;-88
2022/07/22 10:15:55;;;;;;;6.47;1.25;;;;;;;17.09;100.00;101855.94;9956714;29;20049;-88
2022/07/22 10:21:05;;;;;;;8.90;1.23;;;;;;;17.62;100.00;101930.09;9948435;29;20034;-89
2022/07/22 10:26:05;;;;;;;5.50;1.13;;;;;;;17.15;100.00;101873.50;9956978;29;20030;-88
2022/07/22 10:31:23;;;;;;;3.05;0.90;;;;;;;17.43;100.00;101869.38;9972996;29;20037;-88
2022/07/22 10:36:31;;;;;;;4.43;0.82;;;;;;;17.97;100.00;101901.47;9951251;29;20050;-89
2022/07/22 10:41:40;;;;;;;5.28;1.02;;;;;;;18.34;100.00;101929.00;9958660;29;20395;-88
2022/07/22 10:46:50;;;;;;;6.93;0.95;;;;;;;18.50;100.00;101859.25;9961752;29;20038;-87
2022/07/22 10:52:06;;;;;;;5.28;1.20;;;;;;;19.69;100.00;101963.66;9985730;29;20040;-89
2022/07/22 10:57:07;;;;;;;4.43;0.97;;;;;;;19.13;99.07;101884.69;10004795;29;20491;-89
2022/07/22 11:02:07;;;;;;;5.65;1.33;;;;;;;19.30;95.45;101867.53;9969400;29;20050;-89
2022/07/22 11:07:08;;;;;;;4.00;0.60;;;;;;;20.33;94.61;101987.78;9961593;29;20037;-89
2022/07/22 11:12:14;;;;;;;2.10;0.75;;;;;;;19.23;95.31;101746.19;9951099;29;20101;-89
2022/07/22 11:17:15;;;;;;;6.88;1.17;;;;;;;20.49;90.30;101875.75;9961134;29;20049;-89
2022/07/22 11:22:17;;;;;;;1.98;0.57;;;;;;;21.25;88.54;101968.31;9972791;29;20041;-90
2022/07/22 11:27:18;;;;;;;1.90;0.65;;;;;;;20.32;89.82;101885.44;9927149;29;20039;-89
2022/07/22 11:32:20;;;;;;;4.28;0.80;;;;;;;20.30;89.71;101907.28;9943438;29;20029;-92
2022/07/22 11:37:24;;;;;;;4.60;0.75;;;;;;;20.23;89.65;101884.41;9953749;29;20173;-89
2022/07/22 11:42:25;;;;;;;3.55;0.57;;;;;;;19.84;90.87;101854.59;9959203;29;20026;-87
2022/07/22 11:47:25;;;;;;;3.55;0.70;;;;;;;19.61;95.14;101800.28;9948029;29;20115;-91
2022/07/22 11:52:26;;;;;;;5.50;0.70;;;;;;;20.16;96.01;101998.56;9941417;29;20525;-89
2022/07/22 11:57:26;;;;;;;6.68;1.00;;;;;;;19.18;96.26;101874.63;9954460;29;20117;-88
2022/07/22 12:02:27;;;;;;;5.63;1.45;;;;;;;18.61;99.18;101816.28;9961079;29;20046;-88
2022/07/22 12:07:27;;;;;;;6.03;0.90;;;;;;;18.55;99.91;101823.84;9958576;29;20110;-88
2022/07/22 12:12:40;;;;;;;4.68;1.02;;;;;;;19.51;96.62;101885.03;9931154;29;20042;-88
2022/07/22 12:17:41;;;;;;;4.88;1.00;;;;;;;19.81;94.88;101816.06;9937015;29;20049;-89
2022/07/22 12:22:45;;;;;;;7.15;0.70;;;;;;;20.73;93.63;101887.81;9957681;29;20455;-90
2022/07/22 12:28:01;;;;;;;5.43;0.75;;;;;;;20.96;87.68;101773.31;9952667;29;20034;-93
2022/07/22 12:33:02;;;;;;;7.53;1.00;;;;;;;21.10;91.48;101773.38;9964263;29;20471;-90
2022/07/22 12:38:06;;;;;;;9.13;0.63;;;;;;;21.28;85.13;101824.91;9953032;29;20044;-88
2022/07/22 12:43:08;;;;;;;4.90;0.73;;;;;;;21.18;85.53;101870.69;9961423;29;20030;-89
2022/07/22 12:48:09;;;;;;;2.17;0.60;;;;;;;19.78;87.75;101749.59;9975866;29;20038;-89
2022/07/22 12:53:11;;;;;;;1.58;0.50;;;;;;;19.91;90.75;101857.91;9976429;29;20110;-90
2022/07/22 12:58:12;;;;;;;2.47;0.70;;;;;;;19.07;92.15;101830.00;9969977;29;20407;-89
2022/07/22 13:03:12;;;;;;;4.13;0.98;;;;;;;19.26;97.34;101966.13;9977850;29;20069;-89
2022/07/22 13:08:13;;;;;;;4.68;1.58;;;;;;;18.53;100.00;101895.78;9965550;29;20041;-89
2022/07/22 13:13:13;;;;;;;2.38;0.60;;;;;;;17.60;100.00;101762.47;9956194;29;20113;-88
2022/07/22 13:18:14;;;;;;;6.22;1.67;;;;;;;17.73;100.00;101814.81;9975299;29;20133;-88
2022/07/22 13:23:14;;;;;;;4.57;1.73;;;;;;;17.59;100.00;101805.34;9959578;29;20487;-88
2022/07/22 13:28:15;;;;;;;5.65;0.68;;;;;;;17.74;100.00;101791.44;9975491;29;20037;-88
2022/07/22 13:33:16;;;;;;;4.00;0.80;;;;;;;19.05;100.00;101966.22;9976172;29;20066;-88
2022/07/22 13:38:17;;;;;;;5.55;0.75;;;;;;;17.53;100.00;101713.50;9967164;29;20046;-88
2022/07/22 13:43:21;;;;;;;2.13;0.98;;;;;;;19.04;100.00;101933.00;9970603;29;20095;-87
2022/07/22 13:48:21;;;;;;;29.98;1.30;;;;;;;19.08;100.00;101893.09;9968194;29;20403;-93
2022/07/22 13:53:22;;;;;;;3.65;0.63;;;;;;;18.87;100.00;101796.66;9954049;29;20026;-89
2022/07/22 13:58:23;;;;;;;3.45;0.60;;;;;;;19.85;100.00;101858.25;9945039;29;20042;-88
2022/07/22 14:03:23;;;;;;;3.72;0.63;;;;;;;19.41;99.09;101699.94;9967313;29;20129;-94
2022/07/22 14:08:24;;;;;;;3.70;0.50;;;;;;;20.39;96.34;101733.25;9939009;29;20030;-89
2022/07/22 14:13:24;;;;;;;3.92;0.55;;;;;;;21.17;92.77;101863.44;9960004;29;20029;-89
2022/07/22 14:18:25;;;;;;;4.10;0.70;;;;;;;20.55;90.27;101745.88;9946523;29;20065;-89
2022/07/22 14:23:25;;;;;;;11.35;6.07;;;;;;;20.25;94.80;101722.78;9954341;29;20117;-89
2022/07/22 14:28:26;;;;;;;1.73;0.60;;;;;;;20.40;92.85;101828.00;9953645;29;20446;-89
2022/07/22 14:33:26;;;;;;;4.70;0.80;;;;;;;19.92;94.96;101827.97;9953626;29;20103;-88
2022/07/22 14:38:27;;;;;;;2.92;0.55;;;;;;;19.22;96.94;101758.47;9972306;29;20069;-88
2022/07/22 14:43:27;;;;;;;3.03;0.70;;;;;;;19.51;100.00;101856.22;9941026;29;20110;-88
2022/07/22 14:48:28;;;;;;;3.67;0.50;;;;;;;19.26;97.78;101855.28;9931714;29;20037;-88
2022/07/22 14:53:31;;;;;;;3.97;0.60;;;;;;;18.44;99.14;101804.63;9950510;29;20032;-91
2022/07/22 14:58:34;;;;;;;1.27;0.52;;;;;;;19.34;100.00;101952.41;9944370;29;20543;-92
2022/07/22 15:03:35;;;;;;;6.63;0.68;;;;;;;18.91;100.00;101917.72;9953586;29;20582;-88
2022/07/22 15:08:36;;;;;;;2.42;0.35;;;;;;;18.37;100.00;101810.50;9967919;29;20034;-89
2022/07/22 15:13:36;;;;;;;2.35;0.90;;;;;;;18.22;100.00;101796.66;9968424;29;20371;-88
2022/07/22 15:18:37;;;;;;;4.43;0.80;;;;;;;18.65;100.00;101839.69;9967781;29;20057;-88
2022/07/22 15:23:37;;;;;;;3.20;1.48;;;;;;;18.85;100.00;101844.38;9953391;29;20042;-88
2022/07/22 15:28:38;;;;;;;2.88;0.50;;;;;;;19.26;100.00;101887.97;9953723;29;20054;-88
2022/07/22 15:33:39;;;;;;;2.10;0.45;;;;;;;19.05;98.12;101835.03;9945585;29;20506;-88
2022/07/22 15:38:39;;;;;;;1.73;0.40;;;;;;;19.37;98.57;101934.25;9957259;29;20053;-88
2022/07/22 15:43:40;;;;;;;3.88;0.25;;;;;;;18.82;100.00;101888.75;9965522;29;20037;-88
2022/07/22 15:48:40;;;;;;;4.43;0.65;;;;;;;18.56;100.00;101883.22;9934204;29;20041;-88
2022/07/22 15:53:41;;;;;;;2.65;0.60;;;;;;;17.88;100.00;101847.41;9944257;29;20090;-88
2022/07/22 16:04:01;;;;;;;1.23;0.43;;;;;;;17.52;100.00;101839.88;9942339;29;20038;-91
2022/07/22 16:09:04;;;;;;;1.35;0.50;;;;;;;17.61;100.00;101893.09;9904098;29;20113;-91
2022/07/22 16:14:05;;;;;;;3.13;0.90;;;;;;;16.58;100.00;101724.25;9906542;29;20030;-90
2022/07/22 16:19:05;;;;;;;3.28;0.70;;;;;;;16.71;100.00;101744.03;9915188;29;20035;-92
2022/07/22 16:24:06;;;;;;;2.38;0.60;;;;;;;16.51;100.00;101685.59;9922012;29;20057;-90
2022/07/22 16:29:09;;;;;;;3.25;0.80;;;;;;;16.94;100.00;101750.22;9888875;29;20042;-89
2022/07/22 16:34:10;;;;;;;3.55;0.60;;;;;;;17.06;100.00;101784.16;9961781;29;20034;-89
2022/07/22 16:39:13;;;;;;;3.67;2.20;;;;;;;17.93;100.00;101934.59;9876833;29;20121;-90
2022/07/22 16:44:29;;;;;;;4.03;0.70;;;;;;;16.86;100.00;101736.84;9929805;29;20390;-92
2022/07/22 16:49:29;;;;;;;4.30;0.63;;;;;;;17.10;100.00;101757.47;9960345;29;20110;-89
2022/07/22 16:54:33;;;;;;;6.65;0.85;;;;;;;17.51;100.00;101821.50;9950025;29;20123;-89
2022/07/22 16:59:33;;;;;;;2.70;0.70;;;;;;;17.72;100.00;101838.22;9933213;29;20030;-89
2022/07/22 17:04:36;;;;;;;4.68;0.73;;;;;;;17.28;100.00;101756.09;9948540;29;20046;-88
2022/07/22 17:09:37;;;;;;;4.70;0.90;;;;;;;18.25;100.00;101904.78;9964222;29;20034;-89
2022/07/22 17:14:37;;;;;;;1.60;0.50;;;;;;;17.46;100.00;101788.09;9952059;29;20074;-89
2022/07/22 17:19:38;;;;;;;2.83;1.25;;;;;;;17.19;100.00;101751.34;9956350;29;20041;-90
2022/07/22 17:24:38;;;;;;;3.67;0.70;;;;;;;16.68;100.00;101654.75;9912580;29;20529;-89
2022/07/22 17:29:39;;;;;;;4.95;1.02;;;;;;;17.13;100.00;101745.78;9931179;29;20079;-90
2022/07/22 17:34:43;;;;;;;6.10;0.80;;;;;;;16.68;100.00;101661.19;9948634;29;20474;-89
2022/07/22 17:39:43;;;;;;;2.25;0.60;;;;;;;17.58;100.00;101834.31;9967402;29;20030;-89
2022/07/22 17:44:44;;;;;;;1.55;0.50;;;;;;;16.31;100.00;101642.75;9970425;29;20034;-89
2022/07/22 17:49:45;;;;;;;1.77;0.50;;;;;;;17.31;100.00;101827.06;9946689;29;20068;-88
2022/07/22 17:54:46;;;;;;;3.30;0.55;;;;;;;16.39;100.00;101693.34;9950382;29;20038;-88
2022/07/22 17:59:50;;;;;;;5.25;0.82;;;;;;;16.10;100.00;101657.69;9928737;29;20058;-89
2022/07/22 18:04:51;;;;;;;3.38;0.75;;;;;;;16.96;100.00;101800.84;9889043;29;20622;-90
2022/07/22 18:09:51;;;;;;;2.58;0.70;;;;;;;16.16;100.00;101653.81;9818475;29;20091;-89
2022/07/22 18:14:54;;;;;;;2.80;0.90;;;;;;;17.15;100.00;101828.97;9916192;29;20050;-93
2022/07/22 18:19:57;;;;;;;4.70;0.63;;;;;;;16.12;100.00;101677.69;9909056;29;20064;-92
2022/07/22 18:24:58;;;;;;;5.00;1.08;;;;;;;16.38;100.00;101730.59;9944405;29;20026;-91
2022/07/22 18:29:58;;;;;;;7.00;0.73;;;;;;;16.04;100.00;101697.66;9915034;29;20476;-89
2022/07/22 18:34:59;;;;;;;1.88;0.65;;;;;;;17.18;100.00;101930.53;9959920;29;20045;-91
2022/07/22 18:39:59;;;;;;;4.10;0.68;;;;;;;15.36;100.00;101604.03;9969202;29;20042;-91
2022/07/22 18:45:00;;;;;;;2.65;0.93;;;;;;;15.98;100.00;101712.63;9952571;29;20440;-90
2022/07/22 18:50:01;;;;;;;3.05;1.08;;;;;;;16.22;100.00;101774.97;9970049;29;20054;-90
2022/07/22 18:55:01;;;;;;;3.50;0.75;;;;;;;15.79;100.00;101743.63;9957924;29;20170;-91
2022/07/22 19:00:03;;;;;;;3.58;0.70;;;;;;;15.98;100.00;101754.28;9962955;29;20035;-89
2022/07/22 19:05:06;;;;;;;2.58;0.82;;;;;;;15.87;100.00;101786.72;9971972;29;20033;-89
2022/07/22 19:10:08;;;;;;;6.28;1.25;;;;;;;15.80;100.00;101747.25;9929132;29;20030;-89
2022/07/22 19:15:09;;;;;;;4.18;0.90;;;;;;;15.93;100.00;101788.44;9966480;29;20049;-89
2022/07/22 19:20:10;;;;;;;7.43;1.42;;;;;;;15.65;100.00;101745.19;9978977;29;20080;-89
2022/07/22 19:25:10;;;;;;;8.68;1.10;;;;;;;16.11;100.00;101823.25;9964718;29;20035;-89
2022/07/22 19:30:11;;;;;;;3.70;0.90;;;;;;;15.84;100.00;101821.41;9981141;29;20080;-89
2022/07/22 19:35:13;;;;;;;4.13;0.95;;;;;;;15.26;100.00;101731.56;9951757;29;20045;-89
2022/07/22 19:40:14;;;;;;;4.70;0.90;;;;;;;15.49;100.00;101755.34;9960046;29;20097;-88
2022/07/22 19:45:14;;;;;;;4.10;0.95;;;;;;;15.74;100.00;101835.22;9985787;29;20030;-89
2022/07/22 19:50:15;;;;;;;6.38;0.80;;;;;;;15.26;100.00;101715.75;9982026;29;20034;-90
2022/07/22 19:55:16;;;;;;;1.83;0.80;;;;;;;14.85;100.00;101684.91;9964112;29;20056;-90
2022/07/22 20:00:16;;;;;;;3.45;0.68;;;;;;;14.61;100.00;101644.75;9953748;29;20057;-89
2022/07/22 20:05:17;;;;;;;1.90;0.70;;;;;;;15.00;100.00;101720.25;9947908;29;20030;-89
2022/07/22 20:10:18;;;;;;;3.28;0.75;;;;;;;14.75;100.00;101682.03;9957612;29;20128;-89
2022/07/22 20:15:19;;;;;;;2.72;0.70;;;;;;;15.43;100.00;101832.16;9959137;29;20041;-91
2022/07/22 20:20:20;;;;;;;5.25;1.42;;;;;;;14.71;100.00;101728.84;9950103;29;20037;-90
2022/07/22 20:25:21;;;;;;;3.58;1.92;;;;;;;14.46;100.00;101711.91;9950656;29;20034;-91
2022/07/22 20:30:54;;;;;;;3.08;1.10;;;;;;;15.49;100.00;101872.72;9960949;29;20036;-89
2022/07/22 20:42:17;;;;;;;5.80;1.50;;;;;;;14.63;100.00;101806.06;9927726;29;20510;-87
2022/07/22 21:05:54;;;;;;;3.45;1.73;;;;;;;14.06;100.00;101740.81;9631262;30;20077;-89
2022/07/22 21:11:15;;;;;;;3.92;1.75;;;;;;;13.26;100.00;101593.56;9745590;29;20078;-89
2022/07/22 21:16:25;;;;;;;5.80;1.30;;;;;;;13.76;100.00;101730.13;9770163;29;21917;-89
2022/07/22 21:21:26;;;;;;;3.05;1.10;;;;;;;14.25;100.00;101830.78;9916753;29;20038;-88
2022/07/22 21:26:26;;;;;;;5.40;1.50;;;;;;;13.18;100.00;101663.97;9964453;29;20066;-89
2022/07/22 21:31:27;;;;;;;4.05;1.83;;;;;;;13.46;100.00;101714.75;9905245;29;20042;-91
2022/07/22 21:36:28;;;;;;;6.82;2.22;;;;;;;12.38;100.00;101593.25;9930472;29;20073;-91
2022/07/22 21:41:34;;;;;;;5.45;1.80;;;;;;;12.63;100.00;101671.06;9900874;29;20499;-92
2022/07/22 22:05:38;;;;;;;5.45;2.50;;;;;;;13.97;100.00;101881.56;10479499;27;20422;-68
2022/07/22 22:10:40;;;;;;;5.18;2.47;;;;;;;14.08;100.00;101883.44;10458288;28;20084;-68
2022/07/22 22:15:40;;;;;;;3.88;2.00;;;;;;;14.17;100.00;101867.22;10457196;28;20033;-69
2022/07/22 22:20:41;;;;;;;4.55;2.10;;;;;;;14.21;100.00;101876.69;10455845;28;20037;-69
2022/07/22 22:25:41;;;;;;;3.20;2.10;;;;;;;14.27;100.00;101866.53;10457383;28;20037;-69
2022/07/22 22:30:42;;;;;;;4.53;2.35;;;;;;;14.31;100.00;101867.69;10454954;28;20112;-69
2022/07/22 22:35:42;;;;;;;4.50;1.98;;;;;;;14.30;100.00;101866.88;10458200;28;20041;-69
2022/07/22 22:40:43;;;;;;;6.72;2.50;;;;;;;14.25;100.00;101866.78;10454747;28;20042;-69
2022/07/22 22:45:43;;;;;;;5.50;3.22;;;;;;;14.19;100.00;101867.81;10455618;28;20095;-69
2022/07/22 22:50:44;;;;;;;6.05;3.05;;;;;;;14.19;100.00;101865.03;10454769;28;20034;-69
2022/07/22 22:55:44;;;;;;;6.40;3.17;;;;;;;14.18;100.00;101855.06;10455396;28;20053;-69
2022/07/22 23:00:45;;;;;;;7.60;2.90;;;;;;;14.18;100.00;101849.53;10453747;28;20059;-68
2022/07/22 23:05:45;;;;;;;4.40;2.60;;;;;;;14.18;100.00;101860.59;10454769;28;20049;-68
2022/07/22 23:10:46;;;;;;;5.63;2.80;;;;;;;14.20;100.00;101852.88;10451721;28;20037;-69
2022/07/22 23:15:46;;;;;;;3.67;2.75;;;;;;;14.16;100.00;101840.63;10432447;28;20049;-69
2022/07/22 23:20:51;;;;;;;4.53;2.78;;;;;;;14.16;100.00;101851.72;10424944;28;20037;-69
2022/07/22 23:25:52;;;;;;;4.38;3.00;;;;;;;14.12;100.00;101862.44;10425403;28;20087;-69
2022/07/22 23:30:52;;;;;;;7.40;2.67;;;;;;;14.09;100.00;101862.09;10439377;28;20045;-69
2022/07/22 23:35:53;;;;;;;5.80;3.03;;;;;;;14.09;100.00;101873.19;10422761;28;20443;-70
2022/07/22 23:40:53;;;;;;;3.55;2.40;;;;;;;14.06;100.00;101862.63;10420847;28;20037;-70
2022/07/22 23:45:54;;;;;;;6.55;3.00;;;;;;;14.02;100.00;101867.81;10424227;28;20053;-69
2022/07/22 23:50:54;;;;;;;5.30;3.28;;;;;;;13.97;100.00;101861.38;10424120;28;20045;-69
2022/07/22 23:55:55;;;;;;;10.57;3.63;;;;;;;13.93;100.00;101864.66;10424055;28;20038;-69
